createdAt,value
2023-04-18T00:00:07.415Z,25.00
2023-04-18T00:01:14.148Z,25.00
2023-04-18T00:02:07.559Z,25.00
2023-04-18T00:03:07.052Z,25.00
2023-04-18T00:04:07.060Z,25.00
2023-04-18T00:05:06.817Z,25.00
2023-04-18T00:06:06.759Z,25.00
2023-04-18T00:07:07.004Z,14.78
2023-04-18T00:08:06.870Z,23.24
2023-04-18T00:09:06.665Z,25.00
2023-04-18T00:10:06.642Z,25.91
2023-04-18T00:11:06.702Z,34.55
2023-04-18T00:12:06.652Z,28.30
2023-04-18T00:13:07.198Z,38.02
2023-04-18T00:14:06.629Z,22.96
2023-04-18T00:15:06.602Z,27.97
2023-04-18T00:16:06.644Z,93.68
2023-04-18T00:17:07.000Z,104.78
2023-04-18T00:18:06.689Z,114.70
2023-04-18T00:19:07.366Z,117.11
2023-04-18T00:20:06.995Z,103.49
2023-04-18T00:21:06.681Z,91.63
2023-04-18T00:22:06.649Z,77.22
2023-04-18T00:23:06.559Z,69.73
2023-04-18T00:24:06.509Z,71.96
2023-04-18T00:25:06.560Z,83.96
2023-04-18T00:26:06.629Z,89.27
2023-04-18T00:27:07.349Z,89.29
2023-04-18T00:28:15.649Z,104.27
2023-04-18T00:29:06.385Z,104.90
2023-04-18T00:30:06.481Z,115.49
2023-04-18T00:31:06.409Z,141.25
2023-04-18T00:32:07.895Z,191.25
2023-04-18T00:33:06.262Z,108.89
2023-04-18T00:34:06.227Z,122.54
2023-04-18T00:35:06.332Z,106.89
2023-04-18T00:36:06.223Z,113.05
2023-04-18T00:37:05.212Z,119.64
2023-04-18T00:38:07.324Z,133.81
2023-04-18T00:39:05.119Z,105.81
2023-04-18T00:40:06.615Z,107.25
2023-04-18T00:41:08.324Z,118.50
2023-04-18T00:42:12.810Z,106.65
2023-04-18T00:43:09.681Z,106.05
2023-04-18T00:44:06.184Z,108.34
2023-04-18T00:45:08.717Z,126.98
2023-04-18T00:46:06.068Z,164.25
2023-04-18T00:47:06.236Z,217.58
2023-04-18T00:48:06.189Z,286.79
2023-04-18T00:49:06.046Z,249.02
2023-04-18T00:50:07.545Z,244.35
2023-04-18T00:51:05.955Z,230.96
2023-04-18T00:52:05.797Z,248.77
2023-04-18T00:53:07.204Z,250.00
2023-04-18T00:54:09.730Z,250.40
2023-04-18T00:55:04.874Z,251.08
2023-04-18T00:56:05.664Z,258.00
2023-04-18T00:57:05.638Z,274.52
2023-04-18T00:58:05.704Z,266.85
2023-04-18T00:59:05.733Z,263.89
2023-04-18T01:00:09.542Z,223.74
2023-04-18T01:01:11.200Z,212.98
2023-04-18T01:02:06.535Z,224.42
2023-04-18T01:03:11.642Z,231.33
2023-04-18T01:04:06.428Z,225.67
2023-04-18T01:05:05.668Z,233.07
2023-04-18T01:06:05.719Z,249.62
2023-04-18T01:07:05.922Z,266.27
2023-04-18T01:08:05.568Z,272.31
2023-04-18T01:09:11.801Z,262.62
2023-04-18T01:10:09.690Z,262.82
2023-04-18T01:11:05.526Z,262.63
2023-04-18T01:12:05.312Z,235.33
2023-04-18T01:13:05.433Z,172.84
2023-04-18T01:14:06.143Z,131.10
2023-04-18T01:15:05.990Z,135.52
2023-04-18T01:16:09.232Z,114.40
2023-04-18T01:17:12.084Z,115.15
2023-04-18T01:18:07.167Z,114.69
2023-04-18T01:19:05.658Z,115.14
2023-04-18T01:20:12.168Z,116.34
2023-04-18T01:21:08.528Z,111.62
2023-04-18T01:22:05.249Z,102.43
2023-04-18T01:23:05.595Z,81.73
2023-04-18T01:24:06.869Z,65.84
2023-04-18T01:25:05.748Z,63.15
2023-04-18T01:26:06.756Z,67.39
2023-04-18T01:27:05.167Z,89.59
2023-04-18T01:28:12.287Z,78.64
2023-04-18T01:29:05.580Z,60.60
2023-04-18T01:30:16.636Z,68.39
2023-04-18T01:31:05.117Z,80.16
2023-04-18T01:32:05.374Z,102.63
2023-04-18T01:33:05.663Z,106.74
2023-04-18T01:34:05.129Z,97.67
2023-04-18T01:35:04.968Z,82.75
2023-04-18T01:36:07.306Z,72.20
2023-04-18T01:37:11.547Z,72.58
2023-04-18T01:38:05.000Z,72.74
2023-04-18T01:39:10.728Z,75.70
2023-04-18T01:40:05.128Z,72.81
2023-04-18T01:41:05.103Z,78.79
2023-04-18T01:42:04.766Z,78.51
2023-04-18T01:43:15.084Z,91.71
2023-04-18T01:44:04.699Z,73.15
2023-04-18T01:45:04.814Z,77.16
2023-04-18T01:46:05.086Z,82.82
2023-04-18T01:47:04.740Z,98.34
2023-04-18T01:48:05.057Z,129.12
2023-04-18T01:49:04.708Z,143.90
2023-04-18T01:50:03.683Z,151.38
2023-04-18T01:51:04.485Z,169.88
2023-04-18T01:52:04.531Z,185.30
2023-04-18T01:53:04.558Z,198.15
2023-04-18T01:54:05.154Z,216.99
2023-04-18T01:55:04.498Z,248.36
2023-04-18T01:56:04.452Z,251.72
2023-04-18T01:57:08.193Z,250.00
2023-04-18T01:58:04.192Z,250.04
2023-04-18T01:59:09.970Z,252.46
2023-04-18T02:00:08.184Z,250.72
2023-04-18T02:01:04.267Z,250.88
2023-04-18T02:02:04.431Z,251.44
2023-04-18T02:03:04.394Z,229.88
2023-04-18T02:04:05.174Z,220.17
2023-04-18T02:05:04.346Z,230.58
2023-04-18T02:06:04.571Z,241.11
2023-04-18T02:07:09.211Z,229.51
2023-04-18T02:08:04.618Z,229.57
2023-04-18T02:09:04.610Z,220.55
2023-04-18T02:10:05.108Z,214.35
2023-04-18T02:11:04.571Z,211.55
2023-04-18T02:12:10.238Z,214.90
2023-04-18T02:13:04.626Z,224.89
2023-04-18T02:14:04.551Z,231.18
2023-04-18T02:15:08.487Z,236.74
2023-04-18T02:16:04.870Z,230.60
2023-04-18T02:17:04.543Z,234.46
2023-04-18T02:18:11.023Z,235.60
2023-04-18T02:19:04.610Z,230.17
2023-04-18T02:20:04.424Z,233.53
2023-04-18T02:21:04.517Z,229.87
2023-04-18T02:22:04.754Z,217.84
2023-04-18T02:23:04.330Z,209.40
2023-04-18T02:24:04.298Z,219.25
2023-04-18T02:25:04.412Z,228.33
2023-04-18T02:26:04.398Z,218.64
2023-04-18T02:27:10.855Z,209.68
2023-04-18T02:28:10.476Z,209.71
2023-04-18T02:29:04.998Z,200.53
2023-04-18T02:30:04.144Z,183.37
2023-04-18T02:31:04.395Z,173.63
2023-04-18T02:32:04.417Z,190.03
2023-04-18T02:33:05.051Z,169.77
2023-04-18T02:34:04.023Z,176.81
2023-04-18T02:35:04.129Z,162.39
2023-04-18T02:36:06.863Z,159.64
2023-04-18T02:37:04.365Z,159.88
2023-04-18T02:38:05.817Z,163.99
2023-04-18T02:39:04.424Z,159.67
2023-04-18T02:40:04.243Z,148.89
2023-04-18T02:41:04.493Z,141.01
2023-04-18T02:42:04.423Z,133.04
2023-04-18T02:43:04.127Z,132.62
2023-04-18T02:44:04.274Z,102.63
2023-04-18T02:45:04.135Z,109.44
2023-04-18T02:46:05.122Z,103.19
2023-04-18T02:47:05.105Z,83.05
2023-04-18T02:48:04.241Z,157.76
2023-04-18T02:49:04.321Z,134.35
2023-04-18T02:50:04.230Z,135.56
2023-04-18T02:51:04.723Z,146.38
2023-04-18T02:52:10.796Z,134.32
2023-04-18T02:53:04.714Z,135.09
2023-04-18T02:54:04.386Z,139.68
2023-04-18T02:55:04.445Z,146.12
2023-04-18T02:56:04.482Z,146.41
2023-04-18T02:57:04.461Z,120.03
2023-04-18T02:58:04.229Z,127.49
2023-04-18T02:59:04.408Z,153.18
2023-04-18T03:00:04.292Z,253.71
2023-04-18T03:01:11.676Z,249.65
2023-04-18T03:02:07.538Z,228.81
2023-04-18T03:03:04.524Z,183.54
2023-04-18T03:04:10.255Z,191.09
2023-04-18T03:05:04.286Z,182.60
2023-04-18T03:06:04.200Z,189.21
2023-04-18T03:07:04.285Z,200.28
2023-04-18T03:08:09.050Z,207.02
2023-04-18T03:09:05.877Z,249.85
2023-04-18T03:10:04.531Z,212.29
2023-04-18T03:11:04.410Z,146.83
2023-04-18T03:12:05.954Z,135.78
2023-04-18T03:13:04.924Z,127.48
2023-04-18T03:14:03.805Z,140.17
2023-04-18T03:15:03.429Z,124.72
2023-04-18T03:16:04.192Z,145.29
2023-04-18T03:17:04.233Z,142.64
2023-04-18T03:18:08.990Z,163.53
2023-04-18T03:19:04.163Z,170.71
2023-04-18T03:20:05.361Z,199.21
2023-04-18T03:21:02.990Z,202.93
2023-04-18T03:22:05.194Z,174.05
2023-04-18T03:23:04.257Z,217.23
2023-04-18T03:24:04.765Z,185.53
2023-04-18T03:27:53.753Z,25.00
2023-04-18T03:28:44.528Z,25.00
2023-04-18T03:29:43.736Z,25.00
2023-04-18T03:30:45.181Z,25.00
2023-04-18T03:31:44.386Z,25.00
2023-04-18T03:32:43.793Z,25.00
2023-04-18T03:33:48.266Z,25.00
2023-04-18T03:34:46.540Z,25.00
2023-04-18T03:35:43.466Z,25.00
2023-04-18T03:36:46.588Z,25.00
2023-04-18T03:37:43.582Z,25.00
2023-04-18T03:38:45.646Z,25.00
2023-04-18T03:39:45.581Z,25.00
2023-04-18T03:40:43.117Z,25.00
2023-04-18T03:41:44.428Z,25.00
2023-04-18T03:42:44.140Z,25.00
2023-04-18T03:43:45.261Z,25.00
2023-04-18T03:44:44.052Z,25.00
2023-04-18T03:45:44.065Z,25.00
2023-04-18T03:46:43.794Z,25.00
2023-04-18T03:47:44.208Z,25.00
2023-04-18T03:48:44.036Z,25.00
2023-04-18T03:49:44.539Z,25.00
2023-04-18T03:50:43.794Z,25.00
2023-04-18T03:51:44.920Z,25.00
2023-04-18T03:52:45.047Z,25.00
2023-04-18T03:53:43.999Z,25.00
2023-04-18T03:54:44.365Z,25.00
2023-04-18T03:55:45.234Z,25.00
2023-04-18T03:56:45.095Z,25.00
2023-04-18T03:57:44.738Z,25.00
2023-04-18T03:58:45.162Z,25.00
2023-04-18T03:59:45.159Z,25.00
2023-04-18T04:00:44.357Z,25.00
2023-04-18T04:01:44.377Z,25.00
2023-04-18T04:02:43.694Z,25.00
2023-04-18T04:03:44.178Z,25.00
2023-04-18T04:04:44.011Z,25.00
2023-04-18T04:05:44.007Z,44.31
2023-04-18T04:06:44.519Z,31.50
2023-04-18T04:07:44.091Z,7.47
2023-04-18T04:08:44.817Z,0.00
2023-04-18T04:09:43.823Z,0.00
2023-04-18T04:10:43.800Z,0.00
2023-04-18T04:11:43.719Z,0.00
2023-04-18T04:12:43.825Z,0.00
2023-04-18T04:13:43.725Z,0.00
2023-04-18T04:14:44.137Z,0.00
2023-04-18T04:15:43.842Z,0.00
2023-04-18T04:16:43.784Z,0.00
2023-04-18T04:17:43.735Z,0.00
2023-04-18T04:18:43.876Z,0.00
2023-04-18T04:19:44.280Z,0.00
2023-04-18T04:20:44.077Z,0.00
2023-04-18T04:21:43.671Z,0.00
2023-04-18T04:22:44.104Z,25.70
2023-04-18T04:23:43.794Z,13.74
2023-04-18T04:24:45.130Z,24.38
2023-04-18T04:25:44.011Z,89.77
2023-04-18T04:26:44.017Z,89.99
2023-04-18T04:27:43.807Z,94.27
2023-04-18T04:28:43.736Z,101.55
2023-04-18T04:29:44.037Z,94.36
2023-04-18T04:30:43.650Z,68.17
2023-04-18T04:31:43.994Z,92.63
2023-04-18T04:32:44.115Z,111.93
2023-04-18T04:33:43.756Z,134.99
2023-04-18T04:34:43.965Z,143.47
2023-04-18T04:35:44.477Z,115.94
2023-04-18T04:36:43.585Z,113.72
2023-04-18T04:37:43.777Z,102.46
2023-04-18T04:38:44.093Z,105.79
2023-04-18T04:39:44.321Z,131.32
2023-04-18T04:40:44.609Z,143.67
2023-04-18T04:41:43.807Z,169.68
2023-04-18T04:42:44.736Z,173.72
2023-04-18T04:43:43.921Z,226.70
2023-04-18T04:44:43.790Z,266.75
2023-04-18T04:45:43.899Z,281.53
2023-04-18T04:46:43.692Z,264.42
2023-04-18T04:47:43.996Z,264.53
2023-04-18T04:48:43.637Z,259.19
2023-04-18T04:49:43.861Z,250.00
2023-04-18T04:50:43.966Z,250.90
2023-04-18T04:51:43.972Z,243.87
2023-04-18T04:52:44.607Z,236.37
2023-04-18T04:53:44.605Z,230.58
2023-04-18T04:54:44.762Z,223.13
2023-04-18T04:55:44.104Z,221.27
2023-04-18T04:56:45.749Z,228.55
2023-04-18T04:57:43.910Z,217.23
2023-04-18T04:58:45.549Z,202.84
2023-04-18T04:59:44.541Z,185.21
2023-04-18T05:00:45.153Z,192.13
2023-04-18T05:01:44.585Z,205.31
2023-04-18T05:02:44.469Z,204.40
2023-04-18T05:03:44.879Z,211.92
2023-04-18T05:04:45.903Z,231.60
2023-04-18T05:05:44.276Z,260.76
2023-04-18T05:06:44.791Z,206.05
2023-04-18T05:07:45.195Z,212.39
2023-04-18T05:08:44.483Z,216.43
2023-04-18T05:09:44.972Z,224.86
2023-04-18T05:10:46.759Z,200.75
2023-04-18T05:11:45.027Z,157.71
2023-04-18T05:12:45.538Z,133.31
2023-04-18T05:13:47.194Z,122.30
2023-04-18T05:15:14.229Z,102.02
2023-04-18T05:26:25.179Z,25.00
2023-04-18T05:27:26.291Z,25.00
2023-04-18T05:31:04.932Z,25.00
2023-04-18T05:32:06.567Z,25.00
2023-04-18T05:33:06.770Z,25.00
2023-04-18T05:34:07.209Z,25.00
2023-04-18T05:35:07.307Z,25.00
2023-04-18T05:36:08.232Z,25.00
2023-04-18T05:37:08.243Z,25.00
2023-04-18T05:39:28.940Z,25.00
2023-04-18T05:44:28.049Z,25.00
2023-04-18T05:45:27.558Z,25.00
2023-04-18T05:51:23.048Z,25.00
2023-04-18T05:57:29.447Z,25.00
2023-04-18T05:58:27.390Z,25.00
2023-04-18T06:01:27.548Z,25.00
2023-04-18T06:22:05.471Z,25.00
2023-04-18T06:22:59.228Z,25.00
2023-04-18T06:35:43.130Z,25.00
2023-04-18T06:39:44.427Z,25.00
2023-04-18T06:42:02.957Z,25.00
2023-04-18T06:43:05.764Z,25.00
2023-04-18T07:00:17.114Z,25.00
2023-04-18T07:15:53.447Z,25.00
2023-04-18T07:16:53.323Z,25.00
2023-04-18T07:17:53.373Z,25.00
2023-04-18T07:18:53.822Z,25.00
2023-04-18T07:19:53.285Z,25.00
2023-04-18T07:20:53.602Z,25.00
2023-04-18T07:21:53.763Z,72.90
2023-04-18T07:22:53.544Z,38.99
2023-04-18T07:23:54.074Z,15.81
2023-04-18T07:24:53.355Z,0.51
2023-04-18T07:25:54.527Z,0.00
2023-04-18T07:26:55.071Z,0.00
2023-04-18T07:27:54.136Z,0.00
2023-04-18T07:28:53.748Z,0.00
2023-04-18T07:29:53.839Z,0.00
2023-04-18T07:30:53.278Z,0.00
2023-04-18T07:31:53.363Z,0.00
2023-04-18T07:32:54.059Z,0.00
2023-04-18T07:33:54.889Z,0.00
2023-04-18T07:34:53.846Z,0.00
2023-04-18T07:36:06.066Z,0.00
2023-04-18T07:36:54.211Z,0.00
2023-04-18T07:37:53.842Z,0.00
2023-04-18T07:39:02.887Z,0.00
2023-04-18T07:39:53.550Z,0.00
2023-04-18T07:49:43.122Z,25.00
2023-04-18T07:52:06.342Z,25.00
2023-04-18T09:22:15.985Z,25.00
2023-04-18T09:23:19.742Z,25.00
2023-04-18T09:24:13.940Z,25.00
2023-04-18T09:25:19.626Z,25.00
2023-04-18T09:27:31.204Z,25.00
2023-04-18T09:31:11.386Z,25.00
2023-04-18T09:59:54.357Z,25.00
2023-04-18T10:00:56.810Z,25.00
2023-04-18T10:03:15.002Z,25.00
2023-04-18T10:11:04.555Z,25.00
2023-04-18T10:18:06.274Z,25.00
2023-04-18T10:26:30.352Z,25.00
2023-04-18T10:29:07.317Z,25.00
2023-04-18T10:45:45.767Z,25.00
2023-04-18T10:51:16.614Z,25.00
2023-04-18T10:56:43.084Z,25.00
2023-04-18T11:19:05.458Z,25.00
2023-04-18T11:56:47.772Z,25.00
2023-04-18T12:30:24.376Z,25.00
2023-04-18T12:42:09.127Z,25.00
2023-04-18T12:44:43.399Z,25.00
2023-04-18T12:47:22.289Z,25.00
2023-04-18T12:48:26.149Z,25.00
2023-04-18T12:49:25.383Z,25.00
2023-04-18T12:50:23.546Z,25.00
2023-04-18T12:59:01.191Z,25.00
2023-04-18T13:07:21.632Z,25.00
2023-04-18T13:23:54.149Z,25.00
2023-04-18T13:26:14.366Z,25.00
2023-04-18T13:28:34.009Z,25.00
2023-04-18T13:30:56.784Z,25.00
2023-04-18T13:32:04.826Z,25.00
2023-04-18T13:32:56.373Z,25.00
2023-04-18T13:33:55.051Z,25.00
2023-04-18T13:35:07.417Z,25.00
2023-04-18T13:37:13.316Z,25.00
2023-04-18T13:39:32.109Z,25.00
2023-04-18T13:41:54.892Z,25.00
2023-04-18T13:42:53.301Z,25.00
2023-04-18T13:43:52.660Z,25.00
2023-04-18T13:44:57.349Z,25.00
2023-04-18T13:45:54.869Z,25.00
2023-04-18T13:46:52.384Z,25.00
2023-04-18T14:14:15.399Z,25.00
2023-04-18T14:21:17.689Z,25.00
2023-04-18T14:34:54.953Z,25.00
2023-04-18T14:37:14.563Z,25.00
2023-04-18T14:38:14.335Z,25.00
2023-04-18T14:40:33.908Z,25.00
2023-04-18T14:42:52.650Z,25.00
2023-04-18T14:43:54.934Z,25.00
2023-04-18T14:44:53.389Z,25.00
2023-04-18T14:45:59.017Z,25.00
2023-04-18T14:46:56.337Z,25.00
2023-04-18T14:47:54.322Z,25.00
2023-04-18T14:48:54.746Z,25.00
2023-04-18T14:51:18.601Z,25.00
2023-04-18T14:54:51.632Z,25.00
2023-04-18T14:57:13.867Z,25.00
2023-04-18T15:02:11.226Z,25.00
2023-04-18T15:03:12.525Z,25.00
2023-04-18T15:04:11.447Z,25.00
2023-04-18T15:05:11.365Z,25.00
2023-04-18T15:06:11.236Z,25.00
2023-04-18T15:07:16.255Z,25.00
2023-04-18T15:08:14.025Z,25.00
2023-04-18T15:09:11.967Z,25.00
2023-04-18T15:10:13.715Z,25.00
2023-04-18T15:11:12.867Z,25.00
2023-04-18T15:12:14.948Z,25.00
2023-04-18T15:13:20.286Z,25.00
2023-04-18T15:14:15.116Z,25.00
2023-04-18T15:15:13.956Z,25.00
2023-04-18T15:16:12.960Z,25.00
2023-04-18T15:17:12.900Z,25.00
2023-04-18T15:18:12.477Z,25.00
2023-04-18T15:19:12.042Z,25.00
2023-04-18T15:20:12.865Z,25.00
2023-04-18T15:21:11.763Z,25.00
2023-04-18T15:22:11.870Z,25.00
2023-04-18T15:23:11.959Z,25.00
2023-04-18T15:24:14.023Z,25.00
2023-04-18T15:25:11.637Z,25.00
2023-04-18T15:26:12.395Z,25.00
2023-04-18T15:27:12.299Z,25.00
2023-04-18T15:28:13.267Z,25.00
2023-04-18T15:29:13.051Z,25.00
2023-04-18T15:30:12.318Z,25.00
2023-04-18T15:31:12.332Z,25.00
2023-04-18T15:32:12.492Z,25.00
2023-04-18T15:33:13.153Z,25.00
2023-04-18T15:34:14.037Z,25.00
2023-04-18T15:35:17.391Z,25.00
2023-04-18T15:36:13.598Z,25.00
2023-04-18T15:37:15.730Z,25.00
2023-04-18T15:38:13.198Z,25.00
2023-04-18T15:39:12.784Z,25.00
2023-04-18T15:40:14.238Z,25.00
2023-04-18T15:41:13.932Z,25.00
2023-04-18T15:42:13.946Z,25.00
2023-04-18T15:43:15.278Z,25.00
2023-04-18T15:44:12.797Z,25.00
2023-04-18T15:45:14.118Z,25.00
2023-04-18T15:46:12.897Z,25.00
2023-04-18T15:47:12.836Z,25.00
2023-04-18T15:48:13.887Z,25.00
2023-04-18T15:49:13.177Z,25.00
2023-04-18T15:50:13.818Z,25.00
2023-04-18T15:51:13.496Z,25.00
2023-04-18T15:52:12.377Z,25.00
2023-04-18T15:53:13.225Z,25.00
2023-04-18T15:54:13.567Z,25.00
2023-04-18T15:55:12.811Z,25.00
2023-04-18T15:56:13.017Z,25.00
2023-04-18T15:57:13.039Z,47.86
2023-04-18T15:58:13.146Z,115.12
2023-04-18T15:59:13.229Z,83.19
2023-04-18T16:00:13.528Z,63.83
2023-04-18T16:01:14.321Z,142.61
2023-04-18T16:02:16.348Z,174.89
2023-04-18T16:03:14.566Z,98.63
2023-04-18T16:04:14.524Z,26.65
2023-04-18T16:05:13.708Z,52.49
2023-04-18T16:06:13.571Z,118.78
2023-04-18T16:07:13.497Z,15.31
2023-04-18T16:08:13.202Z,0.00
2023-04-18T16:09:13.713Z,0.00
2023-04-18T16:10:13.598Z,0.00
2023-04-18T16:11:13.331Z,102.08
2023-04-18T16:12:13.556Z,137.78
2023-04-18T16:13:13.537Z,130.78
2023-04-18T16:14:14.020Z,121.77
2023-04-18T16:15:13.545Z,83.44
2023-04-18T16:16:13.408Z,104.10
2023-04-18T16:17:13.151Z,73.84
2023-04-18T16:18:14.054Z,34.91
2023-04-18T16:19:13.861Z,63.91
2023-04-18T16:20:13.611Z,73.62
2023-04-18T16:21:13.888Z,117.42
2023-04-18T16:22:13.587Z,24.55
2023-04-18T16:23:14.445Z,22.44
2023-04-18T16:24:13.692Z,34.86
2023-04-18T16:25:13.723Z,48.37
2023-04-18T16:26:13.728Z,61.94
2023-04-18T16:27:13.910Z,90.99
2023-04-18T16:28:13.917Z,19.09
2023-04-18T16:29:14.131Z,7.98
2023-04-18T16:30:13.828Z,31.42
2023-04-18T16:31:13.718Z,30.60
2023-04-18T16:32:15.245Z,28.25
2023-04-18T16:33:14.401Z,41.90
2023-04-18T16:34:14.688Z,29.23
2023-04-18T16:35:14.182Z,0.00
2023-04-18T16:36:14.816Z,0.00
2023-04-18T16:37:14.860Z,20.57
2023-04-18T16:38:14.714Z,67.51
2023-04-18T16:39:17.236Z,23.58
2023-04-18T16:40:15.566Z,44.12
2023-04-18T16:41:14.520Z,47.92
2023-04-18T16:42:15.695Z,68.99
2023-04-18T16:43:14.249Z,44.56
2023-04-18T16:44:14.187Z,59.75
2023-04-18T16:45:13.315Z,120.23
2023-04-18T16:46:14.228Z,157.22
2023-04-18T16:47:14.584Z,261.75
2023-04-18T16:48:14.894Z,183.07
2023-04-18T16:49:14.383Z,88.88
2023-04-18T16:50:14.120Z,96.66
2023-04-18T16:51:13.980Z,129.55
2023-04-18T16:52:14.310Z,58.99
2023-04-18T16:53:14.624Z,37.97
2023-04-18T16:54:14.732Z,46.10
2023-04-18T16:55:14.748Z,78.35
2023-04-18T16:56:14.070Z,89.44
2023-04-18T16:57:14.008Z,172.93
2023-04-18T16:58:14.245Z,178.37
2023-04-18T16:59:14.638Z,183.92
2023-04-18T17:00:14.267Z,182.42
2023-04-18T17:01:15.257Z,245.65
2023-04-18T17:02:14.649Z,250.01
2023-04-18T17:03:14.875Z,136.56
2023-04-18T17:04:15.021Z,148.42
2023-04-18T17:05:14.726Z,141.59
2023-04-18T17:06:15.297Z,118.00
2023-04-18T17:07:14.616Z,90.55
2023-04-18T17:08:17.978Z,121.56
2023-04-18T17:09:16.151Z,122.30
2023-04-18T17:10:17.856Z,124.78
2023-04-18T17:11:16.748Z,123.89
2023-04-18T17:12:15.983Z,131.42
2023-04-18T17:13:18.319Z,124.17
2023-04-18T17:14:17.533Z,125.24
2023-04-18T17:15:16.464Z,126.93
2023-04-18T17:16:17.371Z,143.61
2023-04-18T17:17:17.040Z,126.23
2023-04-18T17:18:17.660Z,126.02
2023-04-18T17:19:16.622Z,127.40
2023-04-18T17:20:15.476Z,127.86
2023-04-18T17:21:15.817Z,128.08
2023-04-18T17:22:14.850Z,138.62
2023-04-18T17:23:16.259Z,161.06
2023-04-18T17:24:15.997Z,214.49
2023-04-18T17:25:15.357Z,329.89
2023-04-18T17:26:15.685Z,329.08
2023-04-18T17:27:16.430Z,290.39
2023-04-18T17:28:18.837Z,258.29
2023-04-18T17:29:16.548Z,236.79
2023-04-18T17:30:17.197Z,258.88
2023-04-18T17:31:16.329Z,259.65
2023-04-18T17:32:17.048Z,259.01
2023-04-18T17:33:18.583Z,258.56
2023-04-18T17:34:21.129Z,259.06
2023-04-18T17:35:17.379Z,258.95
2023-04-18T17:36:15.702Z,259.47
2023-04-18T17:37:18.094Z,271.69
2023-04-18T17:38:18.582Z,262.97
2023-04-18T17:39:18.020Z,262.31
2023-04-18T17:40:16.696Z,261.54
2023-04-18T17:41:16.480Z,260.93
2023-04-18T17:42:17.812Z,262.34
2023-04-18T17:43:17.624Z,261.31
2023-04-18T17:44:18.836Z,259.98
2023-04-18T17:45:16.403Z,260.22
2023-04-18T17:46:16.949Z,269.08
2023-04-18T17:47:17.320Z,260.51
2023-04-18T17:48:17.213Z,275.43
2023-04-18T17:49:19.335Z,261.80
2023-04-18T17:50:16.405Z,259.99
2023-04-18T17:51:16.667Z,265.38
2023-04-18T17:52:16.410Z,281.71
2023-04-18T17:53:16.962Z,322.22
2023-04-18T17:54:17.994Z,393.71
2023-04-18T17:55:17.835Z,366.98
2023-04-18T17:56:17.675Z,364.39
2023-04-18T17:57:17.846Z,354.73
2023-04-18T17:58:19.320Z,344.72
2023-04-18T17:59:16.966Z,367.31
2023-04-18T18:00:16.607Z,360.15
2023-04-18T18:01:16.877Z,368.95
2023-04-18T18:02:16.872Z,360.06
2023-04-18T18:03:17.896Z,359.05
2023-04-18T18:04:17.389Z,355.51
2023-04-18T18:05:17.264Z,331.52
2023-04-18T18:06:16.524Z,317.41
2023-04-18T18:07:17.265Z,316.08
2023-04-18T18:08:17.266Z,329.94
2023-04-18T18:09:17.349Z,307.33
2023-04-18T18:10:16.336Z,305.78
2023-04-18T18:11:16.888Z,332.81
2023-04-18T18:12:16.700Z,354.77
2023-04-18T18:13:18.540Z,358.07
2023-04-18T18:14:17.218Z,381.41
2023-04-18T18:15:17.859Z,368.14
2023-04-18T18:16:17.461Z,374.33
2023-04-18T18:17:18.062Z,391.51
2023-04-18T18:18:18.834Z,427.93
2023-04-18T18:19:17.093Z,371.30
2023-04-18T18:20:16.923Z,371.43
2023-04-18T18:21:17.469Z,384.93
2023-04-18T18:22:17.882Z,398.46
2023-04-18T18:23:17.246Z,426.32
2023-04-18T18:24:17.280Z,445.98
2023-04-18T18:25:17.023Z,416.79
2023-04-18T18:26:17.402Z,385.16
2023-04-18T18:27:17.788Z,370.63
2023-04-18T18:28:17.818Z,358.03
2023-04-18T18:29:18.030Z,320.82
2023-04-18T18:30:18.037Z,312.59
2023-04-18T18:31:18.066Z,276.41
2023-04-18T18:32:18.563Z,274.54
2023-04-18T18:33:17.957Z,259.85
2023-04-18T18:34:17.802Z,255.39
2023-04-18T18:35:19.504Z,248.86
2023-04-18T18:36:18.955Z,232.92
2023-04-18T18:37:18.043Z,226.79
2023-04-18T18:38:18.358Z,221.82
2023-04-18T18:39:18.777Z,229.16
2023-04-18T18:40:17.998Z,244.67
2023-04-18T18:41:20.336Z,226.05
2023-04-18T18:42:19.915Z,221.92
2023-04-18T18:43:18.952Z,224.18
2023-04-18T18:44:19.620Z,231.21
2023-04-18T18:45:17.831Z,238.87
2023-04-18T18:46:19.417Z,237.44
2023-04-18T18:47:19.009Z,236.65
2023-04-18T18:48:20.128Z,231.29
2023-04-18T18:49:20.288Z,217.64
2023-04-18T18:50:18.623Z,213.48
2023-04-18T18:51:18.295Z,215.42
2023-04-18T18:52:21.151Z,220.40
2023-04-18T18:53:19.929Z,223.97
2023-04-18T18:54:19.321Z,219.93
2023-04-18T18:55:18.895Z,221.39
2023-04-18T18:56:20.602Z,222.57
2023-04-18T18:57:19.091Z,226.27
2023-04-18T18:58:21.351Z,237.89
2023-04-18T18:59:19.334Z,245.53
2023-04-18T19:00:19.102Z,242.10
2023-04-18T19:01:20.263Z,235.14
2023-04-18T19:02:19.256Z,227.24
2023-04-18T19:03:20.033Z,246.45
2023-04-18T19:04:19.448Z,237.48
2023-04-18T19:05:18.891Z,230.36
2023-04-18T19:06:19.155Z,232.52
2023-04-18T19:07:20.086Z,229.67
2023-04-18T19:08:19.202Z,231.65
2023-04-18T19:09:19.325Z,232.70
2023-04-18T19:10:19.001Z,250.60
2023-04-18T19:11:19.452Z,265.30
2023-04-18T19:12:20.016Z,278.41
2023-04-18T19:13:19.713Z,261.40
2023-04-18T19:14:19.150Z,262.25
2023-04-18T19:15:19.885Z,260.51
2023-04-18T19:16:18.995Z,260.06
2023-04-18T19:17:19.537Z,256.45
2023-04-18T19:18:19.869Z,257.18
2023-04-18T19:19:20.528Z,261.28
2023-04-18T19:20:20.851Z,280.74
2023-04-18T19:21:19.764Z,261.09
2023-04-18T19:22:20.484Z,264.74
2023-04-18T19:23:21.209Z,268.05
2023-04-18T19:24:21.360Z,260.61
2023-04-18T19:25:19.842Z,261.01
2023-04-18T19:26:22.395Z,265.52
2023-04-18T19:27:21.038Z,261.23
2023-04-18T19:28:21.856Z,261.54
2023-04-18T19:29:19.845Z,261.40
2023-04-18T19:30:19.830Z,266.20
2023-04-18T19:31:19.916Z,277.18
2023-04-18T19:32:20.497Z,291.87
2023-04-18T19:33:20.147Z,261.27
2023-04-18T19:34:19.643Z,261.65
2023-04-18T19:35:20.402Z,264.99
2023-04-18T19:36:19.861Z,271.03
2023-04-18T19:37:21.629Z,260.60
2023-04-18T19:38:20.796Z,260.40
2023-04-18T19:39:22.071Z,260.54
2023-04-18T19:40:20.705Z,260.38
2023-04-18T19:41:20.918Z,260.30
2023-04-18T19:42:20.408Z,260.63
2023-04-18T19:43:21.561Z,260.76
2023-04-18T19:44:20.402Z,264.08
2023-04-18T19:45:20.584Z,260.83
2023-04-18T19:46:20.076Z,264.95
2023-04-18T19:47:20.420Z,274.81
2023-04-18T19:48:21.628Z,287.45
2023-04-18T19:49:21.227Z,306.58
2023-04-18T19:50:23.025Z,261.08
2023-04-18T19:51:20.815Z,260.96
2023-04-18T19:52:22.176Z,264.07
2023-04-18T19:53:22.407Z,260.80
2023-04-18T19:54:22.212Z,260.79
2023-04-18T19:55:21.359Z,261.08
2023-04-18T19:56:21.620Z,265.96
2023-04-18T19:57:22.570Z,261.30
2023-04-18T19:58:20.924Z,261.11
2023-04-18T19:59:21.328Z,266.46
2023-04-18T20:00:22.859Z,278.48
2023-04-18T20:01:20.665Z,261.53
2023-04-18T20:02:21.024Z,266.43
2023-04-18T20:03:21.234Z,277.26
2023-04-18T20:04:22.054Z,294.82
2023-04-18T20:05:22.697Z,330.10
2023-04-18T20:06:21.079Z,262.53
2023-04-18T20:07:22.711Z,272.55
2023-04-18T20:08:23.555Z,263.60
2023-04-18T20:09:24.380Z,263.24
2023-04-18T20:10:22.345Z,262.62
2023-04-18T20:11:22.919Z,272.26
2023-04-18T20:12:21.220Z,262.66
2023-04-18T20:13:22.139Z,272.44
2023-04-18T20:14:21.855Z,291.56
2023-04-18T20:15:21.448Z,263.39
2023-04-18T20:16:21.824Z,275.86
2023-04-18T20:17:22.258Z,295.83
2023-04-18T20:18:21.352Z,317.44
2023-04-18T20:19:24.092Z,263.32
2023-04-18T20:20:21.407Z,262.98
2023-04-18T20:21:22.884Z,272.81
2023-04-18T20:22:21.218Z,287.70
2023-04-18T20:23:22.419Z,316.67
2023-04-18T20:24:22.026Z,262.35
2023-04-18T20:25:21.558Z,262.25
2023-04-18T20:26:21.981Z,262.78
2023-04-18T20:27:21.998Z,275.33
2023-04-18T20:28:21.592Z,288.84
2023-04-18T20:29:21.905Z,310.01
2023-04-18T20:30:21.606Z,343.62
2023-04-18T20:31:22.355Z,324.29
2023-04-18T20:32:22.891Z,309.26
2023-04-18T20:33:23.403Z,301.60
2023-04-18T20:34:21.863Z,301.71
2023-04-18T20:35:22.202Z,290.76
2023-04-18T20:36:22.144Z,290.08
2023-04-18T20:37:22.424Z,288.16
2023-04-18T20:38:23.639Z,298.82
2023-04-18T20:39:22.275Z,301.40